sensor_id;sensor_type;location;lat;lon;timestamp;temperature;humidity
51175;DHT22;37240;50.104;20.010;2023-05-18T00:01:13;13.10;99.90
51175;DHT22;37240;50.104;20.010;2023-05-18T00:06:14;13.10;99.90
51175;DHT22;37240;50.104;20.010;2023-05-18T00:11:14;13.10;99.90
51175;DHT22;37240;50.104;20.010;2023-05-18T00:16:15;13.10;99.90
51175;DHT22;37240;50.104;20.010;2023-05-18T00:21:15;13.10;99.90
51175;DHT22;37240;50.104;20.010;2023-05-18T00:26:16;13.10;99.90
51175;DHT22;37240;50.104;20.010;2023-05-18T00:31:17;13.00;99.90
51175;DHT22;37240;50.104;20.010;2023-05-18T00:36:17;13.00;99.90
51175;DHT22;37240;50.104;20.010;2023-05-18T00:41:18;13.00;99.90
51175;DHT22;37240;50.104;20.010;2023-05-18T00:46:19;13.00;99.90
51175;DHT22;37240;50.104;20.010;2023-05-18T00:51:20;13.00;99.90
51175;DHT22;37240;50.104;20.010;2023-05-18T00:56:22;13.00;99.90
51175;DHT22;37240;50.104;20.010;2023-05-18T01:01:26;12.90;99.90
51175;DHT22;37240;50.104;20.010;2023-05-18T01:06:27;12.90;99.90
51175;DHT22;37240;50.104;20.010;2023-05-18T01:16:55;12.80;99.90
51175;DHT22;37240;50.104;20.010;2023-05-18T01:22:05;12.80;99.90
51175;DHT22;37240;50.104;20.010;2023-05-18T01:27:07;12.70;99.90
51175;DHT22;37240;50.104;20.010;2023-05-18T01:32:08;12.60;99.90
51175;DHT22;37240;50.104;20.010;2023-05-18T01:37:09;12.60;99.90
51175;DHT22;37240;50.104;20.010;2023-05-18T01:42:14;12.60;99.90
51175;DHT22;37240;50.104;20.010;2023-05-18T01:47:17;12.60;99.90
51175;DHT22;37240;50.104;20.010;2023-05-18T01:52:21;12.60;99.90
51175;DHT22;37240;50.104;20.010;2023-05-18T01:57:26;12.50;99.90
51175;DHT22;37240;50.104;20.010;2023-05-18T02:02:28;12.50;99.90
51175;DHT22;37240;50.104;20.010;2023-05-18T02:07:28;12.40;99.90
51175;DHT22;37240;50.104;20.010;2023-05-18T02:12:29;12.40;99.90
51175;DHT22;37240;50.104;20.010;2023-05-18T02:17:32;12.40;99.90
51175;DHT22;37240;50.104;20.010;2023-05-18T02:22:33;12.40;99.90
51175;DHT22;37240;50.104;20.010;2023-05-18T02:27:33;12.40;99.90
51175;DHT22;37240;50.104;20.010;2023-05-18T02:32:35;12.30;99.90
51175;DHT22;37240;50.104;20.010;2023-05-18T02:37:35;12.20;99.90
51175;DHT22;37240;50.104;20.010;2023-05-18T02:42:36;12.20;99.90
51175;DHT22;37240;50.104;20.010;2023-05-18T02:47:36;12.20;99.90
51175;DHT22;37240;50.104;20.010;2023-05-18T02:52:37;12.20;99.90
51175;DHT22;37240;50.104;20.010;2023-05-18T02:57:37;12.10;99.90
51175;DHT22;37240;50.104;20.010;2023-05-18T03:02:38;12.10;99.90
51175;DHT22;37240;50.104;20.010;2023-05-18T03:07:39;12.10;99.90
51175;DHT22;37240;50.104;20.010;2023-05-18T03:12:39;12.00;99.90
51175;DHT22;37240;50.104;20.010;2023-05-18T03:17:40;12.00;99.90
51175;DHT22;37240;50.104;20.010;2023-05-18T03:22:40;11.90;99.90
51175;DHT22;37240;50.104;20.010;2023-05-18T03:27:41;11.90;99.90
51175;DHT22;37240;50.104;20.010;2023-05-18T03:32:41;11.90;99.90
51175;DHT22;37240;50.104;20.010;2023-05-18T03:37:42;11.90;99.90
51175;DHT22;37240;50.104;20.010;2023-05-18T03:42:42;11.80;99.90
51175;DHT22;37240;50.104;20.010;2023-05-18T03:47:43;11.60;99.90
51175;DHT22;37240;50.104;20.010;2023-05-18T03:52:44;11.50;99.90
51175;DHT22;37240;50.104;20.010;2023-05-18T03:57:44;11.30;99.90
51175;DHT22;37240;50.104;20.010;2023-05-18T04:02:45;11.10;99.90
51175;DHT22;37240;50.104;20.010;2023-05-18T04:07:45;11.10;99.90
51175;DHT22;37240;50.104;20.010;2023-05-18T04:12:46;11.00;99.90
51175;DHT22;37240;50.104;20.010;2023-05-18T04:17:49;10.90;99.90
51175;DHT22;37240;50.104;20.010;2023-05-18T04:22:50;10.90;99.90
51175;DHT22;37240;50.104;20.010;2023-05-18T04:27:50;11.00;99.90
51175;DHT22;37240;50.104;20.010;2023-05-18T04:32:51;11.10;99.90
51175;DHT22;37240;50.104;20.010;2023-05-18T04:37:52;11.10;99.90
51175;DHT22;37240;50.104;20.010;2023-05-18T04:42:52;11.20;99.90
51175;DHT22;37240;50.104;20.010;2023-05-18T04:47:53;11.20;99.90
51175;DHT22;37240;50.104;20.010;2023-05-18T04:52:53;11.10;99.90
51175;DHT22;37240;50.104;20.010;2023-05-18T04:57:54;11.10;99.90
51175;DHT22;37240;50.104;20.010;2023-05-18T05:02:56;11.10;99.90
51175;DHT22;37240;50.104;20.010;2023-05-18T05:07:56;11.20;99.90
51175;DHT22;37240;50.104;20.010;2023-05-18T05:12:57;11.20;99.90
51175;DHT22;37240;50.104;20.010;2023-05-18T05:17:58;11.30;99.90
51175;DHT22;37240;50.104;20.010;2023-05-18T05:22:58;11.30;99.90
51175;DHT22;37240;50.104;20.010;2023-05-18T05:27:59;11.10;99.90
51175;DHT22;37240;50.104;20.010;2023-05-18T05:32:59;11.00;99.90
51175;DHT22;37240;50.104;20.010;2023-05-18T05:38:00;10.90;99.90
51175;DHT22;37240;50.104;20.010;2023-05-18T05:43:00;10.90;99.90
51175;DHT22;37240;50.104;20.010;2023-05-18T05:48:01;10.90;99.90
51175;DHT22;37240;50.104;20.010;2023-05-18T05:53:01;10.80;99.90
51175;DHT22;37240;50.104;20.010;2023-05-18T05:58:02;10.80;99.90
51175;DHT22;37240;50.104;20.010;2023-05-18T06:03:03;11.00;99.90
51175;DHT22;37240;50.104;20.010;2023-05-18T06:08:03;11.10;99.90
51175;DHT22;37240;50.104;20.010;2023-05-18T06:13:04;11.20;99.90
51175;DHT22;37240;50.104;20.010;2023-05-18T06:18:04;11.30;99.90
51175;DHT22;37240;50.104;20.010;2023-05-18T06:23:05;11.30;99.90
51175;DHT22;37240;50.104;20.010;2023-05-18T06:28:06;11.30;99.90
51175;DHT22;37240;50.104;20.010;2023-05-18T06:33:06;11.20;99.90
51175;DHT22;37240;50.104;20.010;2023-05-18T06:38:07;11.20;99.90
51175;DHT22;37240;50.104;20.010;2023-05-18T06:43:07;11.30;99.90
51175;DHT22;37240;50.104;20.010;2023-05-18T06:48:08;11.30;99.90
51175;DHT22;37240;50.104;20.010;2023-05-18T06:53:08;11.30;99.90
51175;DHT22;37240;50.104;20.010;2023-05-18T06:58:09;11.30;99.90
51175;DHT22;37240;50.104;20.010;2023-05-18T07:03:09;11.30;99.90
51175;DHT22;37240;50.104;20.010;2023-05-18T07:08:10;11.40;99.90
51175;DHT22;37240;50.104;20.010;2023-05-18T07:13:11;11.50;99.90
51175;DHT22;37240;50.104;20.010;2023-05-18T07:18:11;11.60;99.90
51175;DHT22;37240;50.104;20.010;2023-05-18T07:23:12;11.70;99.90
51175;DHT22;37240;50.104;20.010;2023-05-18T07:28:13;11.60;99.90
51175;DHT22;37240;50.104;20.010;2023-05-18T07:33:13;11.60;99.90
51175;DHT22;37240;50.104;20.010;2023-05-18T07:38:14;11.70;99.90
51175;DHT22;37240;50.104;20.010;2023-05-18T07:43:14;11.80;99.90
51175;DHT22;37240;50.104;20.010;2023-05-18T07:48:15;11.80;99.90
51175;DHT22;37240;50.104;20.010;2023-05-18T07:53:16;11.80;99.90
51175;DHT22;37240;50.104;20.010;2023-05-18T07:58:16;11.90;99.90
51175;DHT22;37240;50.104;20.010;2023-05-18T08:03:17;11.90;99.90
51175;DHT22;37240;50.104;20.010;2023-05-18T08:08:18;12.00;99.90
51175;DHT22;37240;50.104;20.010;2023-05-18T08:13:18;12.10;99.90
51175;DHT22;37240;50.104;20.010;2023-05-18T08:18:19;12.10;99.90
51175;DHT22;37240;50.104;20.010;2023-05-18T08:23:19;12.10;99.90
51175;DHT22;37240;50.104;20.010;2023-05-18T08:28:20;12.00;99.90
51175;DHT22;37240;50.104;20.010;2023-05-18T08:33:21;12.00;99.90
51175;DHT22;37240;50.104;20.010;2023-05-18T08:38:21;12.10;99.90
51175;DHT22;37240;50.104;20.010;2023-05-18T08:43:24;12.10;99.90
51175;DHT22;37240;50.104;20.010;2023-05-18T08:48:26;12.10;99.90
51175;DHT22;37240;50.104;20.010;2023-05-18T08:53:28;12.20;99.90
51175;DHT22;37240;50.104;20.010;2023-05-18T08:58:34;12.20;99.90
51175;DHT22;37240;50.104;20.010;2023-05-18T09:03:37;12.20;99.90
51175;DHT22;37240;50.104;20.010;2023-05-18T09:08:37;12.30;99.90
51175;DHT22;37240;50.104;20.010;2023-05-18T09:13:39;12.40;99.90
51175;DHT22;37240;50.104;20.010;2023-05-18T09:18:39;12.50;99.90
51175;DHT22;37240;50.104;20.010;2023-05-18T09:23:40;12.40;99.90
51175;DHT22;37240;50.104;20.010;2023-05-18T09:28:42;12.40;99.90
51175;DHT22;37240;50.104;20.010;2023-05-18T09:33:44;12.30;99.90
51175;DHT22;37240;50.104;20.010;2023-05-18T09:38:45;12.40;99.90
51175;DHT22;37240;50.104;20.010;2023-05-18T09:43:49;12.50;99.90
51175;DHT22;37240;50.104;20.010;2023-05-18T09:48:51;12.40;99.90
51175;DHT22;37240;50.104;20.010;2023-05-18T09:53:53;12.60;99.90
51175;DHT22;37240;50.104;20.010;2023-05-18T09:58:54;12.70;99.90
51175;DHT22;37240;50.104;20.010;2023-05-18T10:04:02;12.80;99.90
51175;DHT22;37240;50.104;20.010;2023-05-18T10:09:03;13.00;99.90
51175;DHT22;37240;50.104;20.010;2023-05-18T10:14:13;13.20;99.90
51175;DHT22;37240;50.104;20.010;2023-05-18T10:19:14;13.40;99.90
51175;DHT22;37240;50.104;20.010;2023-05-18T10:24:16;13.50;99.90
51175;DHT22;37240;50.104;20.010;2023-05-18T10:29:18;13.30;99.90
51175;DHT22;37240;50.104;20.010;2023-05-18T10:34:19;13.20;99.90
51175;DHT22;37240;50.104;20.010;2023-05-18T10:39:19;13.20;99.90
51175;DHT22;37240;50.104;20.010;2023-05-18T10:44:21;13.20;99.90
51175;DHT22;37240;50.104;20.010;2023-05-18T10:49:25;13.20;99.90
51175;DHT22;37240;50.104;20.010;2023-05-18T10:54:27;13.10;99.90
51175;DHT22;37240;50.104;20.010;2023-05-18T10:59:27;13.00;99.90
51175;DHT22;37240;50.104;20.010;2023-05-18T11:04:28;12.90;99.90
51175;DHT22;37240;50.104;20.010;2023-05-18T11:09:30;12.90;99.90
51175;DHT22;37240;50.104;20.010;2023-05-18T11:14:31;12.90;99.90
51175;DHT22;37240;50.104;20.010;2023-05-18T11:19:32;12.90;99.90
51175;DHT22;37240;50.104;20.010;2023-05-18T11:24:32;12.90;99.90
51175;DHT22;37240;50.104;20.010;2023-05-18T11:29:34;13.00;99.90
51175;DHT22;37240;50.104;20.010;2023-05-18T11:39:36;12.90;99.90
51175;DHT22;37240;50.104;20.010;2023-05-18T11:44:36;12.90;99.90
51175;DHT22;37240;50.104;20.010;2023-05-18T11:49:47;13.00;99.90
51175;DHT22;37240;50.104;20.010;2023-05-18T11:54:56;13.00;99.90
51175;DHT22;37240;50.104;20.010;2023-05-18T11:59:57;13.10;99.90
51175;DHT22;37240;50.104;20.010;2023-05-18T12:04:59;13.10;99.90
51175;DHT22;37240;50.104;20.010;2023-05-18T12:10:02;13.20;99.90
51175;DHT22;37240;50.104;20.010;2023-05-18T12:15:06;13.20;99.90
51175;DHT22;37240;50.104;20.010;2023-05-18T12:20:11;13.30;99.90
51175;DHT22;37240;50.104;20.010;2023-05-18T12:25:12;13.40;99.90
51175;DHT22;37240;50.104;20.010;2023-05-18T12:30:17;13.40;99.90
51175;DHT22;37240;50.104;20.010;2023-05-18T12:35:22;13.40;99.90
51175;DHT22;37240;50.104;20.010;2023-05-18T12:40:23;13.40;99.90
51175;DHT22;37240;50.104;20.010;2023-05-18T12:45:25;13.40;99.90
51175;DHT22;37240;50.104;20.010;2023-05-18T12:50:26;13.40;99.90
51175;DHT22;37240;50.104;20.010;2023-05-18T12:55:28;13.40;99.90
51175;DHT22;37240;50.104;20.010;2023-05-18T13:00:33;13.50;99.90
51175;DHT22;37240;50.104;20.010;2023-05-18T13:05:34;13.60;99.90
51175;DHT22;37240;50.104;20.010;2023-05-18T13:10:34;13.70;99.90
51175;DHT22;37240;50.104;20.010;2023-05-18T13:15:36;13.80;99.90
51175;DHT22;37240;50.104;20.010;2023-05-18T13:20:51;13.80;99.90
51175;DHT22;37240;50.104;20.010;2023-05-18T13:25:52;13.90;99.90
51175;DHT22;37240;50.104;20.010;2023-05-18T13:30:53;13.80;99.90
51175;DHT22;37240;50.104;20.010;2023-05-18T13:35:53;13.90;99.90
51175;DHT22;37240;50.104;20.010;2023-05-18T13:40:54;13.90;99.90
51175;DHT22;37240;50.104;20.010;2023-05-18T13:45:54;14.00;99.90
51175;DHT22;37240;50.104;20.010;2023-05-18T13:50:55;13.90;99.90
51175;DHT22;37240;50.104;20.010;2023-05-18T13:55:56;13.80;99.90
51175;DHT22;37240;50.104;20.010;2023-05-18T14:00:56;13.80;99.90
51175;DHT22;37240;50.104;20.010;2023-05-18T14:05:57;14.00;99.90
51175;DHT22;37240;50.104;20.010;2023-05-18T14:10:58;14.00;99.90
51175;DHT22;37240;50.104;20.010;2023-05-18T14:15:58;14.00;99.90
51175;DHT22;37240;50.104;20.010;2023-05-18T14:20:59;13.80;99.90
51175;DHT22;37240;50.104;20.010;2023-05-18T14:25:59;13.80;99.90
51175;DHT22;37240;50.104;20.010;2023-05-18T14:31:00;13.80;99.90
51175;DHT22;37240;50.104;20.010;2023-05-18T14:36:00;13.70;99.90
51175;DHT22;37240;50.104;20.010;2023-05-18T14:41:01;13.60;99.90
51175;DHT22;37240;50.104;20.010;2023-05-18T14:46:01;13.40;99.90
51175;DHT22;37240;50.104;20.010;2023-05-18T14:51:02;13.20;99.90
51175;DHT22;37240;50.104;20.010;2023-05-18T14:56:03;13.10;99.90
51175;DHT22;37240;50.104;20.010;2023-05-18T15:01:04;13.00;99.90
51175;DHT22;37240;50.104;20.010;2023-05-18T15:06:04;13.00;99.90
51175;DHT22;37240;50.104;20.010;2023-05-18T15:11:05;13.10;99.90
51175;DHT22;37240;50.104;20.010;2023-05-18T15:16:05;13.20;99.90
51175;DHT22;37240;50.104;20.010;2023-05-18T15:21:06;13.10;99.90
51175;DHT22;37240;50.104;20.010;2023-05-18T15:26:07;13.10;99.90
51175;DHT22;37240;50.104;20.010;2023-05-18T15:31:07;13.00;99.90
51175;DHT22;37240;50.104;20.010;2023-05-18T15:36:08;13.00;99.90
51175;DHT22;37240;50.104;20.010;2023-05-18T15:41:09;13.10;99.90
51175;DHT22;37240;50.104;20.010;2023-05-18T15:46:09;13.10;99.90
51175;DHT22;37240;50.104;20.010;2023-05-18T15:51:10;13.20;99.90
51175;DHT22;37240;50.104;20.010;2023-05-18T15:56:10;13.20;99.90
51175;DHT22;37240;50.104;20.010;2023-05-18T16:01:11;13.20;99.90
51175;DHT22;37240;50.104;20.010;2023-05-18T16:06:11;13.20;99.90
51175;DHT22;37240;50.104;20.010;2023-05-18T16:11:12;13.10;99.90
51175;DHT22;37240;50.104;20.010;2023-05-18T16:16:13;13.20;99.90
51175;DHT22;37240;50.104;20.010;2023-05-18T16:21:13;13.10;99.90
51175;DHT22;37240;50.104;20.010;2023-05-18T16:26:14;13.00;99.90
51175;DHT22;37240;50.104;20.010;2023-05-18T16:31:14;12.90;99.90
51175;DHT22;37240;50.104;20.010;2023-05-18T16:36:15;12.90;99.90
51175;DHT22;37240;50.104;20.010;2023-05-18T16:41:16;12.90;99.90
51175;DHT22;37240;50.104;20.010;2023-05-18T16:46:16;12.80;99.90
51175;DHT22;37240;50.104;20.010;2023-05-18T16:51:17;12.70;99.90
51175;DHT22;37240;50.104;20.010;2023-05-18T16:56:17;12.70;99.90
51175;DHT22;37240;50.104;20.010;2023-05-18T17:01:18;12.70;99.90
51175;DHT22;37240;50.104;20.010;2023-05-18T17:06:19;12.70;99.90
51175;DHT22;37240;50.104;20.010;2023-05-18T17:11:19;12.60;99.90
51175;DHT22;37240;50.104;20.010;2023-05-18T17:16:20;12.50;99.90
51175;DHT22;37240;50.104;20.010;2023-05-18T17:21:21;12.30;99.90
51175;DHT22;37240;50.104;20.010;2023-05-18T17:26:21;12.10;99.90
51175;DHT22;37240;50.104;20.010;2023-05-18T17:31:22;12.10;99.90
51175;DHT22;37240;50.104;20.010;2023-05-18T17:36:22;12.00;99.90
51175;DHT22;37240;50.104;20.010;2023-05-18T17:41:23;12.00;99.90
51175;DHT22;37240;50.104;20.010;2023-05-18T17:46:23;12.00;99.90
51175;DHT22;37240;50.104;20.010;2023-05-18T17:51:24;11.90;99.90
51175;DHT22;37240;50.104;20.010;2023-05-18T17:56:25;11.80;99.90
51175;DHT22;37240;50.104;20.010;2023-05-18T18:01:26;11.70;99.90
51175;DHT22;37240;50.104;20.010;2023-05-18T18:06:27;11.70;99.90
51175;DHT22;37240;50.104;20.010;2023-05-18T18:11:28;11.70;99.90
51175;DHT22;37240;50.104;20.010;2023-05-18T18:16:28;11.70;99.90
51175;DHT22;37240;50.104;20.010;2023-05-18T18:21:29;11.70;99.90
51175;DHT22;37240;50.104;20.010;2023-05-18T18:26:29;11.70;99.90
51175;DHT22;37240;50.104;20.010;2023-05-18T18:31:30;11.70;99.90
51175;DHT22;37240;50.104;20.010;2023-05-18T18:36:30;11.80;99.90
51175;DHT22;37240;50.104;20.010;2023-05-18T18:41:31;11.80;99.90
51175;DHT22;37240;50.104;20.010;2023-05-18T18:46:31;11.80;99.90
51175;DHT22;37240;50.104;20.010;2023-05-18T18:51:32;11.90;99.90
51175;DHT22;37240;50.104;20.010;2023-05-18T18:56:33;11.90;99.90
51175;DHT22;37240;50.104;20.010;2023-05-18T19:01:33;11.90;99.90
51175;DHT22;37240;50.104;20.010;2023-05-18T19:06:34;12.00;99.90
51175;DHT22;37240;50.104;20.010;2023-05-18T19:11:34;12.00;99.90
51175;DHT22;37240;50.104;20.010;2023-05-18T19:16:35;12.00;99.90
51175;DHT22;37240;50.104;20.010;2023-05-18T19:21:36;12.00;99.90
51175;DHT22;37240;50.104;20.010;2023-05-18T19:26:37;11.90;99.90
51175;DHT22;37240;50.104;20.010;2023-05-18T19:31:38;11.90;99.90
51175;DHT22;37240;50.104;20.010;2023-05-18T19:36:38;12.00;99.90
51175;DHT22;37240;50.104;20.010;2023-05-18T19:41:39;12.00;99.90
51175;DHT22;37240;50.104;20.010;2023-05-18T19:46:39;12.00;99.90
51175;DHT22;37240;50.104;20.010;2023-05-18T19:51:40;12.10;99.90
51175;DHT22;37240;50.104;20.010;2023-05-18T19:56:40;12.10;99.90
51175;DHT22;37240;50.104;20.010;2023-05-18T20:01:41;12.10;99.90
51175;DHT22;37240;50.104;20.010;2023-05-18T20:06:41;12.00;99.90
51175;DHT22;37240;50.104;20.010;2023-05-18T20:11:42;12.00;99.90
51175;DHT22;37240;50.104;20.010;2023-05-18T20:16:43;12.00;99.90
51175;DHT22;37240;50.104;20.010;2023-05-18T20:21:44;12.00;99.90
51175;DHT22;37240;50.104;20.010;2023-05-18T20:26:45;12.00;99.90
51175;DHT22;37240;50.104;20.010;2023-05-18T20:31:46;12.10;99.90
51175;DHT22;37240;50.104;20.010;2023-05-18T20:36:46;12.10;99.90
51175;DHT22;37240;50.104;20.010;2023-05-18T20:41:47;12.00;99.90
51175;DHT22;37240;50.104;20.010;2023-05-18T20:46:48;12.00;99.90
51175;DHT22;37240;50.104;20.010;2023-05-18T20:51:49;12.00;99.90
51175;DHT22;37240;50.104;20.010;2023-05-18T20:56:50;12.00;99.90
51175;DHT22;37240;50.104;20.010;2023-05-18T21:01:50;11.90;99.90
51175;DHT22;37240;50.104;20.010;2023-05-18T21:06:51;11.90;99.90
51175;DHT22;37240;50.104;20.010;2023-05-18T21:11:51;11.90;99.90
51175;DHT22;37240;50.104;20.010;2023-05-18T21:16:52;11.90;99.90
51175;DHT22;37240;50.104;20.010;2023-05-18T21:21:52;12.00;99.90
51175;DHT22;37240;50.104;20.010;2023-05-18T21:26:53;12.00;99.90
51175;DHT22;37240;50.104;20.010;2023-05-18T21:31:54;12.00;99.90
51175;DHT22;37240;50.104;20.010;2023-05-18T21:36:55;11.90;99.90
51175;DHT22;37240;50.104;20.010;2023-05-18T21:41:55;11.90;99.90
51175;DHT22;37240;50.104;20.010;2023-05-18T21:46:56;11.90;99.90
51175;DHT22;37240;50.104;20.010;2023-05-18T21:51:56;11.80;99.90
51175;DHT22;37240;50.104;20.010;2023-05-18T21:56:58;11.70;99.90
51175;DHT22;37240;50.104;20.010;2023-05-18T22:01:59;11.70;99.90
51175;DHT22;37240;50.104;20.010;2023-05-18T22:07:00;11.70;99.90
51175;DHT22;37240;50.104;20.010;2023-05-18T22:12:00;11.80;99.90
51175;DHT22;37240;50.104;20.010;2023-05-18T22:17:01;11.80;99.90
51175;DHT22;37240;50.104;20.010;2023-05-18T22:22:01;11.70;99.90
51175;DHT22;37240;50.104;20.010;2023-05-18T22:27:02;11.70;99.90
51175;DHT22;37240;50.104;20.010;2023-05-18T22:32:03;11.80;99.90
51175;DHT22;37240;50.104;20.010;2023-05-18T22:37:03;11.80;99.90
51175;DHT22;37240;50.104;20.010;2023-05-18T22:42:04;11.80;99.90
51175;DHT22;37240;50.104;20.010;2023-05-18T22:47:05;11.70;99.90
51175;DHT22;37240;50.104;20.010;2023-05-18T22:52:06;11.70;99.90
51175;DHT22;37240;50.104;20.010;2023-05-18T22:57:06;11.70;99.90
51175;DHT22;37240;50.104;20.010;2023-05-18T23:02:07;11.70;99.90
51175;DHT22;37240;50.104;20.010;2023-05-18T23:07:07;11.70;99.90
51175;DHT22;37240;50.104;20.010;2023-05-18T23:12:08;11.70;99.90
51175;DHT22;37240;50.104;20.010;2023-05-18T23:17:10;11.80;99.90
51175;DHT22;37240;50.104;20.010;2023-05-18T23:22:10;11.80;99.90
51175;DHT22;37240;50.104;20.010;2023-05-18T23:27:11;11.80;99.90
51175;DHT22;37240;50.104;20.010;2023-05-18T23:32:11;11.70;99.90
51175;DHT22;37240;50.104;20.010;2023-05-18T23:37:15;11.70;99.90
51175;DHT22;37240;50.104;20.010;2023-05-18T23:42:18;11.70;99.90
51175;DHT22;37240;50.104;20.010;2023-05-18T23:47:19;11.70;99.90
51175;DHT22;37240;50.104;20.010;2023-05-18T23:52:20;11.70;99.90
51175;DHT22;37240;50.104;20.010;2023-05-18T23:57:22;11.60;99.90
